sensor_id;sensor_type;location;lat;lon;timestamp;P1;durP1;ratioP1;P2;durP2;ratioP2
31818;SDS011;18384;48.860;9.188;2023-03-14T00:01:15;1.23;;;0.65;;
31818;SDS011;18384;48.860;9.188;2023-03-14T00:03:45;1.37;;;0.82;;
31818;SDS011;18384;48.860;9.188;2023-03-14T00:08:38;1.33;;;0.70;;
31818;SDS011;18384;48.860;9.188;2023-03-14T00:11:13;2.00;;;0.62;;
31818;SDS011;18384;48.860;9.188;2023-03-14T00:13:42;1.05;;;0.55;;
31818;SDS011;18384;48.860;9.188;2023-03-14T00:16:10;0.93;;;0.50;;
31818;SDS011;18384;48.860;9.188;2023-03-14T00:18:38;1.17;;;0.60;;
31818;SDS011;18384;48.860;9.188;2023-03-14T00:21:05;1.62;;;0.68;;
31818;SDS011;18384;48.860;9.188;2023-03-14T00:23:34;1.70;;;0.65;;
31818;SDS011;18384;48.860;9.188;2023-03-14T00:26:06;1.15;;;0.60;;
31818;SDS011;18384;48.860;9.188;2023-03-14T00:28:42;1.00;;;0.50;;
31818;SDS011;18384;48.860;9.188;2023-03-14T00:31:10;3.05;;;0.65;;
31818;SDS011;18384;48.860;9.188;2023-03-14T00:33:39;1.60;;;0.70;;
31818;SDS011;18384;48.860;9.188;2023-03-14T00:38:34;1.65;;;0.60;;
31818;SDS011;18384;48.860;9.188;2023-03-14T00:41:05;1.90;;;0.70;;
31818;SDS011;18384;48.860;9.188;2023-03-14T00:43:33;1.85;;;1.00;;
31818;SDS011;18384;48.860;9.188;2023-03-14T00:48:27;0.90;;;0.57;;
31818;SDS011;18384;48.860;9.188;2023-03-14T00:50:53;2.10;;;0.90;;
31818;SDS011;18384;48.860;9.188;2023-03-14T00:53:20;1.98;;;0.75;;
31818;SDS011;18384;48.860;9.188;2023-03-14T00:55:46;2.10;;;0.80;;
31818;SDS011;18384;48.860;9.188;2023-03-14T01:00:40;3.22;;;1.20;;
31818;SDS011;18384;48.860;9.188;2023-03-14T01:03:08;1.20;;;0.60;;
31818;SDS011;18384;48.860;9.188;2023-03-14T01:05:36;0.68;;;0.50;;
31818;SDS011;18384;48.860;9.188;2023-03-14T01:08:03;1.67;;;0.70;;
31818;SDS011;18384;48.860;9.188;2023-03-14T01:10:30;1.62;;;0.70;;
31818;SDS011;18384;48.860;9.188;2023-03-14T01:12:56;0.88;;;0.55;;
31818;SDS011;18384;48.860;9.188;2023-03-14T01:15:23;3.50;;;0.60;;
31818;SDS011;18384;48.860;9.188;2023-03-14T01:17:49;1.50;;;0.60;;
31818;SDS011;18384;48.860;9.188;2023-03-14T01:22:42;0.83;;;0.57;;
31818;SDS011;18384;48.860;9.188;2023-03-14T01:25:11;1.58;;;0.60;;
31818;SDS011;18384;48.860;9.188;2023-03-14T01:27:39;0.90;;;0.50;;
31818;SDS011;18384;48.860;9.188;2023-03-14T01:30:06;0.98;;;0.57;;
31818;SDS011;18384;48.860;9.188;2023-03-14T01:32:34;0.82;;;0.60;;
31818;SDS011;18384;48.860;9.188;2023-03-14T01:35:00;1.95;;;0.75;;
31818;SDS011;18384;48.860;9.188;2023-03-14T01:37:27;1.42;;;0.60;;
31818;SDS011;18384;48.860;9.188;2023-03-14T01:39:53;1.75;;;0.70;;
31818;SDS011;18384;48.860;9.188;2023-03-14T01:42:19;1.55;;;0.70;;
31818;SDS011;18384;48.860;9.188;2023-03-14T01:44:52;0.60;;;0.50;;
31818;SDS011;18384;48.860;9.188;2023-03-14T01:47:21;1.15;;;0.60;;
31818;SDS011;18384;48.860;9.188;2023-03-14T01:50:01;1.58;;;0.55;;
31818;SDS011;18384;48.860;9.188;2023-03-14T01:52:36;2.57;;;0.80;;
31818;SDS011;18384;48.860;9.188;2023-03-14T01:55:17;7.62;;;2.75;;
31818;SDS011;18384;48.860;9.188;2023-03-14T01:57:56;2.08;;;0.98;;
31818;SDS011;18384;48.860;9.188;2023-03-14T02:00:26;1.23;;;0.60;;
31818;SDS011;18384;48.860;9.188;2023-03-14T02:02:57;2.10;;;0.80;;
31818;SDS011;18384;48.860;9.188;2023-03-14T02:05:32;1.95;;;0.60;;
31818;SDS011;18384;48.860;9.188;2023-03-14T02:08:03;5.32;;;0.80;;
31818;SDS011;18384;48.860;9.188;2023-03-14T02:10:37;2.62;;;0.80;;
31818;SDS011;18384;48.860;9.188;2023-03-14T02:13:06;2.37;;;0.75;;
31818;SDS011;18384;48.860;9.188;2023-03-14T02:15:33;2.33;;;1.30;;
31818;SDS011;18384;48.860;9.188;2023-03-14T02:18:00;2.50;;;1.17;;
31818;SDS011;18384;48.860;9.188;2023-03-14T02:21:16;2.60;;;0.82;;
31818;SDS011;18384;48.860;9.188;2023-03-14T02:28:15;3.08;;;0.70;;
31818;SDS011;18384;48.860;9.188;2023-03-14T02:30:42;1.37;;;0.88;;
31818;SDS011;18384;48.860;9.188;2023-03-14T02:33:12;1.55;;;0.70;;
31818;SDS011;18384;48.860;9.188;2023-03-14T02:35:52;1.85;;;0.65;;
31818;SDS011;18384;48.860;9.188;2023-03-14T02:38:44;2.08;;;0.60;;
31818;SDS011;18384;48.860;9.188;2023-03-14T02:41:33;0.65;;;0.47;;
31818;SDS011;18384;48.860;9.188;2023-03-14T02:44:00;2.40;;;0.80;;
31818;SDS011;18384;48.860;9.188;2023-03-14T02:46:26;2.55;;;0.68;;
31818;SDS011;18384;48.860;9.188;2023-03-14T02:48:53;0.75;;;0.45;;
31818;SDS011;18384;48.860;9.188;2023-03-14T02:51:29;3.08;;;0.80;;
31818;SDS011;18384;48.860;9.188;2023-03-14T02:53:56;1.12;;;0.70;;
31818;SDS011;18384;48.860;9.188;2023-03-14T02:56:22;1.55;;;0.70;;
31818;SDS011;18384;48.860;9.188;2023-03-14T02:58:49;1.30;;;0.60;;
31818;SDS011;18384;48.860;9.188;2023-03-14T03:01:15;0.85;;;0.50;;
31818;SDS011;18384;48.860;9.188;2023-03-14T03:03:41;1.23;;;0.70;;
31818;SDS011;18384;48.860;9.188;2023-03-14T03:06:07;2.60;;;0.65;;
31818;SDS011;18384;48.860;9.188;2023-03-14T03:08:34;2.42;;;1.05;;
31818;SDS011;18384;48.860;9.188;2023-03-14T03:13:26;3.33;;;0.82;;
31818;SDS011;18384;48.860;9.188;2023-03-14T03:15:52;6.70;;;0.88;;
31818;SDS011;18384;48.860;9.188;2023-03-14T03:18:18;4.43;;;0.90;;
31818;SDS011;18384;48.860;9.188;2023-03-14T03:20:45;3.80;;;1.05;;
31818;SDS011;18384;48.860;9.188;2023-03-14T03:23:11;3.03;;;0.75;;
31818;SDS011;18384;48.860;9.188;2023-03-14T03:28:03;1.48;;;0.80;;
31818;SDS011;18384;48.860;9.188;2023-03-14T03:30:33;3.83;;;1.50;;
31818;SDS011;18384;48.860;9.188;2023-03-14T03:33:04;4.53;;;1.05;;
31818;SDS011;18384;48.860;9.188;2023-03-14T03:35:30;4.18;;;0.95;;
31818;SDS011;18384;48.860;9.188;2023-03-14T03:37:56;4.32;;;1.58;;
31818;SDS011;18384;48.860;9.188;2023-03-14T03:40:22;3.42;;;0.68;;
31818;SDS011;18384;48.860;9.188;2023-03-14T03:42:48;2.58;;;0.70;;
31818;SDS011;18384;48.860;9.188;2023-03-14T03:45:14;1.80;;;0.60;;
31818;SDS011;18384;48.860;9.188;2023-03-14T03:47:40;3.67;;;1.10;;
31818;SDS011;18384;48.860;9.188;2023-03-14T03:50:07;0.95;;;0.60;;
31818;SDS011;18384;48.860;9.188;2023-03-14T03:52:33;1.77;;;0.90;;
31818;SDS011;18384;48.860;9.188;2023-03-14T03:54:59;1.35;;;0.70;;
31818;SDS011;18384;48.860;9.188;2023-03-14T03:57:26;2.30;;;0.90;;
31818;SDS011;18384;48.860;9.188;2023-03-14T03:59:52;2.47;;;0.70;;
31818;SDS011;18384;48.860;9.188;2023-03-14T04:02:18;2.53;;;0.77;;
31818;SDS011;18384;48.860;9.188;2023-03-14T04:04:44;2.67;;;0.98;;
31818;SDS011;18384;48.860;9.188;2023-03-14T04:07:10;6.57;;;0.90;;
31818;SDS011;18384;48.860;9.188;2023-03-14T04:09:39;3.70;;;0.93;;
31818;SDS011;18384;48.860;9.188;2023-03-14T04:12:05;5.55;;;0.93;;
31818;SDS011;18384;48.860;9.188;2023-03-14T04:16:57;2.67;;;0.80;;
31818;SDS011;18384;48.860;9.188;2023-03-14T04:19:23;1.83;;;0.90;;
31818;SDS011;18384;48.860;9.188;2023-03-14T04:21:49;4.78;;;0.75;;
31818;SDS011;18384;48.860;9.188;2023-03-14T04:24:15;1.62;;;0.98;;
31818;SDS011;18384;48.860;9.188;2023-03-14T04:26:41;2.15;;;1.00;;
31818;SDS011;18384;48.860;9.188;2023-03-14T04:29:08;1.60;;;0.82;;
31818;SDS011;18384;48.860;9.188;2023-03-14T04:31:34;4.62;;;1.75;;
31818;SDS011;18384;48.860;9.188;2023-03-14T04:34:00;3.55;;;0.88;;
31818;SDS011;18384;48.860;9.188;2023-03-14T04:36:26;5.87;;;1.15;;
31818;SDS011;18384;48.860;9.188;2023-03-14T04:38:52;2.72;;;1.25;;
31818;SDS011;18384;48.860;9.188;2023-03-14T04:41:18;2.22;;;0.88;;
31818;SDS011;18384;48.860;9.188;2023-03-14T04:43:44;4.15;;;1.12;;
31818;SDS011;18384;48.860;9.188;2023-03-14T04:46:10;4.55;;;0.93;;
31818;SDS011;18384;48.860;9.188;2023-03-14T04:48:36;3.62;;;0.90;;
31818;SDS011;18384;48.860;9.188;2023-03-14T04:51:03;4.40;;;1.12;;
31818;SDS011;18384;48.860;9.188;2023-03-14T04:53:30;7.30;;;1.15;;
31818;SDS011;18384;48.860;9.188;2023-03-14T04:55:56;7.75;;;1.10;;
31818;SDS011;18384;48.860;9.188;2023-03-14T04:58:22;5.75;;;0.98;;
31818;SDS011;18384;48.860;9.188;2023-03-14T05:00:49;2.70;;;0.80;;
31818;SDS011;18384;48.860;9.188;2023-03-14T05:03:16;4.35;;;1.02;;
31818;SDS011;18384;48.860;9.188;2023-03-14T05:05:43;4.32;;;0.90;;
31818;SDS011;18384;48.860;9.188;2023-03-14T05:08:09;11.15;;;1.12;;
31818;SDS011;18384;48.860;9.188;2023-03-14T05:10:36;8.40;;;2.00;;
31818;SDS011;18384;48.860;9.188;2023-03-14T05:13:02;7.90;;;2.08;;
31818;SDS011;18384;48.860;9.188;2023-03-14T05:15:29;7.37;;;1.98;;
31818;SDS011;18384;48.860;9.188;2023-03-14T05:17:55;5.32;;;1.62;;
31818;SDS011;18384;48.860;9.188;2023-03-14T05:20:21;5.70;;;1.40;;
31818;SDS011;18384;48.860;9.188;2023-03-14T05:22:47;6.47;;;1.40;;
31818;SDS011;18384;48.860;9.188;2023-03-14T05:25:13;6.05;;;1.10;;
31818;SDS011;18384;48.860;9.188;2023-03-14T05:27:40;4.80;;;1.30;;
31818;SDS011;18384;48.860;9.188;2023-03-14T05:30:06;4.35;;;1.25;;
31818;SDS011;18384;48.860;9.188;2023-03-14T05:32:33;3.47;;;1.00;;
31818;SDS011;18384;48.860;9.188;2023-03-14T05:34:59;5.12;;;1.02;;
31818;SDS011;18384;48.860;9.188;2023-03-14T05:37:26;4.80;;;1.45;;
31818;SDS011;18384;48.860;9.188;2023-03-14T05:39:52;9.57;;;1.20;;
31818;SDS011;18384;48.860;9.188;2023-03-14T05:42:18;5.50;;;1.00;;
31818;SDS011;18384;48.860;9.188;2023-03-14T05:44:44;3.08;;;0.98;;
31818;SDS011;18384;48.860;9.188;2023-03-14T05:47:10;5.03;;;1.08;;
31818;SDS011;18384;48.860;9.188;2023-03-14T05:49:36;6.28;;;1.27;;
31818;SDS011;18384;48.860;9.188;2023-03-14T05:52:03;9.30;;;1.77;;
31818;SDS011;18384;48.860;9.188;2023-03-14T05:54:29;6.45;;;2.25;;
31818;SDS011;18384;48.860;9.188;2023-03-14T05:56:55;6.28;;;1.62;;
31818;SDS011;18384;48.860;9.188;2023-03-14T06:01:48;7.87;;;1.00;;
31818;SDS011;18384;48.860;9.188;2023-03-14T06:04:14;5.90;;;1.75;;
31818;SDS011;18384;48.860;9.188;2023-03-14T06:06:40;4.00;;;1.02;;
31818;SDS011;18384;48.860;9.188;2023-03-14T06:09:06;2.55;;;1.27;;
31818;SDS011;18384;48.860;9.188;2023-03-14T06:11:32;6.57;;;1.10;;
31818;SDS011;18384;48.860;9.188;2023-03-14T06:13:58;3.90;;;1.00;;
31818;SDS011;18384;48.860;9.188;2023-03-14T06:16:25;4.85;;;1.12;;
31818;SDS011;18384;48.860;9.188;2023-03-14T06:18:51;3.55;;;1.00;;
31818;SDS011;18384;48.860;9.188;2023-03-14T06:21:17;5.12;;;0.75;;
31818;SDS011;18384;48.860;9.188;2023-03-14T06:23:44;3.65;;;0.90;;
31818;SDS011;18384;48.860;9.188;2023-03-14T06:28:37;3.50;;;0.75;;
31818;SDS011;18384;48.860;9.188;2023-03-14T06:31:04;2.70;;;0.85;;
31818;SDS011;18384;48.860;9.188;2023-03-14T06:33:30;3.47;;;0.85;;
31818;SDS011;18384;48.860;9.188;2023-03-14T06:35:57;9.02;;;1.15;;
31818;SDS011;18384;48.860;9.188;2023-03-14T06:38:23;3.83;;;0.90;;
31818;SDS011;18384;48.860;9.188;2023-03-14T06:40:49;4.15;;;1.30;;
31818;SDS011;18384;48.860;9.188;2023-03-14T06:43:15;4.87;;;1.45;;
31818;SDS011;18384;48.860;9.188;2023-03-14T06:45:41;3.92;;;0.90;;
31818;SDS011;18384;48.860;9.188;2023-03-14T06:48:07;2.65;;;0.93;;
31818;SDS011;18384;48.860;9.188;2023-03-14T06:50:33;3.65;;;1.08;;
31818;SDS011;18384;48.860;9.188;2023-03-14T06:52:59;3.85;;;0.82;;
31818;SDS011;18384;48.860;9.188;2023-03-14T06:55:25;8.00;;;1.12;;
31818;SDS011;18384;48.860;9.188;2023-03-14T06:57:51;3.30;;;0.80;;
31818;SDS011;18384;48.860;9.188;2023-03-14T07:00:18;3.70;;;1.30;;
31818;SDS011;18384;48.860;9.188;2023-03-14T07:02:44;7.65;;;1.05;;
31818;SDS011;18384;48.860;9.188;2023-03-14T07:05:10;4.30;;;1.50;;
31818;SDS011;18384;48.860;9.188;2023-03-14T07:07:36;2.08;;;0.82;;
31818;SDS011;18384;48.860;9.188;2023-03-14T07:10:03;3.10;;;0.95;;
31818;SDS011;18384;48.860;9.188;2023-03-14T07:12:29;2.60;;;1.10;;
31818;SDS011;18384;48.860;9.188;2023-03-14T07:14:55;3.25;;;0.73;;
31818;SDS011;18384;48.860;9.188;2023-03-14T07:17:21;2.35;;;0.65;;
31818;SDS011;18384;48.860;9.188;2023-03-14T07:19:48;2.42;;;0.77;;
31818;SDS011;18384;48.860;9.188;2023-03-14T07:22:14;5.25;;;1.20;;
31818;SDS011;18384;48.860;9.188;2023-03-14T07:24:40;2.55;;;0.80;;
31818;SDS011;18384;48.860;9.188;2023-03-14T07:27:06;1.90;;;0.82;;
31818;SDS011;18384;48.860;9.188;2023-03-14T07:29:32;3.35;;;0.95;;
31818;SDS011;18384;48.860;9.188;2023-03-14T07:31:58;2.85;;;1.00;;
31818;SDS011;18384;48.860;9.188;2023-03-14T07:34:24;2.20;;;0.62;;
31818;SDS011;18384;48.860;9.188;2023-03-14T07:36:50;1.70;;;0.73;;
31818;SDS011;18384;48.860;9.188;2023-03-14T07:39:16;4.40;;;1.05;;
31818;SDS011;18384;48.860;9.188;2023-03-14T07:41:42;3.12;;;0.68;;
31818;SDS011;18384;48.860;9.188;2023-03-14T07:44:09;2.28;;;0.70;;
31818;SDS011;18384;48.860;9.188;2023-03-14T07:46:35;3.65;;;0.60;;
31818;SDS011;18384;48.860;9.188;2023-03-14T07:49:01;3.97;;;0.82;;
31818;SDS011;18384;48.860;9.188;2023-03-14T07:51:27;3.30;;;0.75;;
31818;SDS011;18384;48.860;9.188;2023-03-14T07:53:53;3.95;;;0.50;;
31818;SDS011;18384;48.860;9.188;2023-03-14T07:56:19;1.80;;;0.70;;
31818;SDS011;18384;48.860;9.188;2023-03-14T07:58:45;1.40;;;0.47;;
31818;SDS011;18384;48.860;9.188;2023-03-14T08:01:11;1.83;;;0.60;;
31818;SDS011;18384;48.860;9.188;2023-03-14T08:03:38;1.17;;;0.60;;
31818;SDS011;18384;48.860;9.188;2023-03-14T08:06:04;2.65;;;0.62;;
31818;SDS011;18384;48.860;9.188;2023-03-14T08:08:30;1.95;;;1.00;;
31818;SDS011;18384;48.860;9.188;2023-03-14T08:11:01;2.05;;;0.50;;
31818;SDS011;18384;48.860;9.188;2023-03-14T08:13:29;3.72;;;1.12;;
31818;SDS011;18384;48.860;9.188;2023-03-14T08:15:55;0.60;;;0.40;;
31818;SDS011;18384;48.860;9.188;2023-03-14T08:18:21;1.52;;;0.50;;
31818;SDS011;18384;48.860;9.188;2023-03-14T08:20:47;2.15;;;1.00;;
31818;SDS011;18384;48.860;9.188;2023-03-14T08:23:13;2.30;;;0.68;;
31818;SDS011;18384;48.860;9.188;2023-03-14T08:28:06;6.43;;;0.60;;
31818;SDS011;18384;48.860;9.188;2023-03-14T08:30:32;5.47;;;0.80;;
31818;SDS011;18384;48.860;9.188;2023-03-14T08:32:58;1.48;;;0.60;;
31818;SDS011;18384;48.860;9.188;2023-03-14T08:35:25;1.95;;;0.70;;
31818;SDS011;18384;48.860;9.188;2023-03-14T08:37:52;2.33;;;0.75;;
31818;SDS011;18384;48.860;9.188;2023-03-14T08:40:18;2.20;;;0.70;;
31818;SDS011;18384;48.860;9.188;2023-03-14T08:42:45;1.65;;;0.40;;
31818;SDS011;18384;48.860;9.188;2023-03-14T08:45:12;4.28;;;0.60;;
31818;SDS011;18384;48.860;9.188;2023-03-14T08:47:42;1.52;;;0.50;;
31818;SDS011;18384;48.860;9.188;2023-03-14T08:50:09;1.83;;;0.55;;
31818;SDS011;18384;48.860;9.188;2023-03-14T08:52:36;2.35;;;0.40;;
31818;SDS011;18384;48.860;9.188;2023-03-14T08:55:07;3.85;;;0.50;;
31818;SDS011;18384;48.860;9.188;2023-03-14T08:57:34;1.80;;;0.52;;
31818;SDS011;18384;48.860;9.188;2023-03-14T09:00:02;1.02;;;0.50;;
31818;SDS011;18384;48.860;9.188;2023-03-14T09:02:36;1.73;;;0.50;;
31818;SDS011;18384;48.860;9.188;2023-03-14T09:05:02;1.80;;;0.50;;
31818;SDS011;18384;48.860;9.188;2023-03-14T09:07:28;3.50;;;0.50;;
31818;SDS011;18384;48.860;9.188;2023-03-14T09:09:54;1.65;;;0.52;;
31818;SDS011;18384;48.860;9.188;2023-03-14T09:12:21;0.82;;;0.30;;
31818;SDS011;18384;48.860;9.188;2023-03-14T09:14:47;0.65;;;0.40;;
31818;SDS011;18384;48.860;9.188;2023-03-14T09:17:13;1.70;;;0.52;;
31818;SDS011;18384;48.860;9.188;2023-03-14T09:19:39;1.35;;;0.52;;
31818;SDS011;18384;48.860;9.188;2023-03-14T09:22:05;0.60;;;0.50;;
31818;SDS011;18384;48.860;9.188;2023-03-14T09:24:32;0.90;;;0.40;;
31818;SDS011;18384;48.860;9.188;2023-03-14T09:26:58;2.05;;;0.70;;
31818;SDS011;18384;48.860;9.188;2023-03-14T09:29:24;1.17;;;0.50;;
31818;SDS011;18384;48.860;9.188;2023-03-14T09:31:50;4.28;;;0.40;;
31818;SDS011;18384;48.860;9.188;2023-03-14T09:36:43;1.83;;;0.45;;
31818;SDS011;18384;48.860;9.188;2023-03-14T09:39:09;3.65;;;0.50;;
31818;SDS011;18384;48.860;9.188;2023-03-14T09:41:37;6.43;;;0.68;;
31818;SDS011;18384;48.860;9.188;2023-03-14T09:44:19;1.15;;;0.40;;
31818;SDS011;18384;48.860;9.188;2023-03-14T09:46:53;2.03;;;0.47;;
31818;SDS011;18384;48.860;9.188;2023-03-14T09:49:30;2.42;;;0.45;;
31818;SDS011;18384;48.860;9.188;2023-03-14T09:52:06;2.58;;;0.50;;
31818;SDS011;18384;48.860;9.188;2023-03-14T09:55:10;5.40;;;0.40;;
31818;SDS011;18384;48.860;9.188;2023-03-14T09:57:49;0.35;;;0.30;;
31818;SDS011;18384;48.860;9.188;2023-03-14T10:00:23;1.62;;;0.50;;
31818;SDS011;18384;48.860;9.188;2023-03-14T10:02:56;1.48;;;0.40;;
31818;SDS011;18384;48.860;9.188;2023-03-14T10:05:46;3.35;;;0.50;;
31818;SDS011;18384;48.860;9.188;2023-03-14T10:10:39;0.87;;;0.50;;
31818;SDS011;18384;48.860;9.188;2023-03-14T10:13:25;0.60;;;0.30;;
31818;SDS011;18384;48.860;9.188;2023-03-14T10:16:00;1.27;;;0.40;;
31818;SDS011;18384;48.860;9.188;2023-03-14T10:18:31;0.65;;;0.40;;
31818;SDS011;18384;48.860;9.188;2023-03-14T10:25:05;2.37;;;0.43;;
31818;SDS011;18384;48.860;9.188;2023-03-14T10:27:35;0.55;;;0.30;;
31818;SDS011;18384;48.860;9.188;2023-03-14T10:30:06;2.72;;;0.50;;
31818;SDS011;18384;48.860;9.188;2023-03-14T10:33:20;1.77;;;0.40;;
31818;SDS011;18384;48.860;9.188;2023-03-14T10:35:57;0.88;;;0.40;;
31818;SDS011;18384;48.860;9.188;2023-03-14T10:38:28;1.33;;;0.50;;
31818;SDS011;18384;48.860;9.188;2023-03-14T10:41:02;2.55;;;0.50;;
31818;SDS011;18384;48.860;9.188;2023-03-14T10:44:00;0.60;;;0.35;;
31818;SDS011;18384;48.860;9.188;2023-03-14T10:46:29;0.62;;;0.30;;
31818;SDS011;18384;48.860;9.188;2023-03-14T10:48:58;0.40;;;0.30;;
31818;SDS011;18384;48.860;9.188;2023-03-14T10:51:30;0.88;;;0.40;;
31818;SDS011;18384;48.860;9.188;2023-03-14T10:54:01;1.40;;;0.40;;
31818;SDS011;18384;48.860;9.188;2023-03-14T10:56:39;1.65;;;0.40;;
31818;SDS011;18384;48.860;9.188;2023-03-14T10:59:12;2.50;;;1.00;;
31818;SDS011;18384;48.860;9.188;2023-03-14T11:01:44;0.50;;;0.30;;
31818;SDS011;18384;48.860;9.188;2023-03-14T11:04:41;0.68;;;0.45;;
31818;SDS011;18384;48.860;9.188;2023-03-14T11:10:32;1.35;;;0.40;;
31818;SDS011;18384;48.860;9.188;2023-03-14T11:14:34;3.05;;;0.30;;
31818;SDS011;18384;48.860;9.188;2023-03-14T11:17:16;0.62;;;0.45;;
31818;SDS011;18384;48.860;9.188;2023-03-14T11:24:16;1.42;;;0.52;;
31818;SDS011;18384;48.860;9.188;2023-03-14T11:34:50;2.65;;;0.40;;
31818;SDS011;18384;48.860;9.188;2023-03-14T11:37:22;0.65;;;0.40;;
31818;SDS011;18384;48.860;9.188;2023-03-14T11:40:20;0.32;;;0.32;;
31818;SDS011;18384;48.860;9.188;2023-03-14T11:43:08;0.30;;;0.30;;
31818;SDS011;18384;48.860;9.188;2023-03-14T11:46:01;1.37;;;0.40;;
31818;SDS011;18384;48.860;9.188;2023-03-14T11:48:59;0.57;;;0.40;;
31818;SDS011;18384;48.860;9.188;2023-03-14T11:51:36;6.60;;;0.50;;
31818;SDS011;18384;48.860;9.188;2023-03-14T11:54:14;0.62;;;0.30;;
31818;SDS011;18384;48.860;9.188;2023-03-14T11:56:53;4.25;;;0.40;;
31818;SDS011;18384;48.860;9.188;2023-03-14T11:59:31;0.88;;;0.40;;
31818;SDS011;18384;48.860;9.188;2023-03-14T12:03:54;0.85;;;0.37;;
31818;SDS011;18384;48.860;9.188;2023-03-14T12:07:25;0.82;;;0.40;;
31818;SDS011;18384;48.860;9.188;2023-03-14T12:10:36;0.50;;;0.40;;
31818;SDS011;18384;48.860;9.188;2023-03-14T12:13:15;0.62;;;0.47;;
31818;SDS011;18384;48.860;9.188;2023-03-14T12:16:00;1.75;;;0.47;;
31818;SDS011;18384;48.860;9.188;2023-03-14T12:18:36;1.80;;;0.60;;
31818;SDS011;18384;48.860;9.188;2023-03-14T12:21:05;1.27;;;0.62;;
31818;SDS011;18384;48.860;9.188;2023-03-14T12:23:45;0.60;;;0.40;;
31818;SDS011;18384;48.860;9.188;2023-03-14T12:26:24;1.40;;;0.40;;
31818;SDS011;18384;48.860;9.188;2023-03-14T12:40:25;2.40;;;0.65;;
31818;SDS011;18384;48.860;9.188;2023-03-14T12:42:58;2.25;;;0.70;;
31818;SDS011;18384;48.860;9.188;2023-03-14T12:45:30;3.78;;;1.05;;
31818;SDS011;18384;48.860;9.188;2023-03-14T12:50:56;3.40;;;0.77;;
31818;SDS011;18384;48.860;9.188;2023-03-14T12:57:27;4.68;;;0.90;;
31818;SDS011;18384;48.860;9.188;2023-03-14T13:00:51;1.40;;;0.70;;
31818;SDS011;18384;48.860;9.188;2023-03-14T13:03:45;5.43;;;1.02;;
31818;SDS011;18384;48.860;9.188;2023-03-14T13:09:55;2.03;;;1.00;;
31818;SDS011;18384;48.860;9.188;2023-03-14T13:12:30;2.37;;;0.60;;
31818;SDS011;18384;48.860;9.188;2023-03-14T13:18:42;1.85;;;0.60;;
31818;SDS011;18384;48.860;9.188;2023-03-14T13:21:20;3.53;;;0.75;;
31818;SDS011;18384;48.860;9.188;2023-03-14T13:24:00;4.82;;;0.60;;
31818;SDS011;18384;48.860;9.188;2023-03-14T13:26:32;3.53;;;0.70;;
31818;SDS011;18384;48.860;9.188;2023-03-14T13:29:20;1.87;;;0.77;;
31818;SDS011;18384;48.860;9.188;2023-03-14T13:32:02;1.73;;;1.10;;
31818;SDS011;18384;48.860;9.188;2023-03-14T13:34:51;4.03;;;0.70;;
31818;SDS011;18384;48.860;9.188;2023-03-14T13:37:21;1.58;;;0.70;;
31818;SDS011;18384;48.860;9.188;2023-03-14T13:39:50;4.22;;;0.80;;
31818;SDS011;18384;48.860;9.188;2023-03-14T13:42:20;3.25;;;0.60;;
31818;SDS011;18384;48.860;9.188;2023-03-14T13:44:53;5.72;;;1.00;;
31818;SDS011;18384;48.860;9.188;2023-03-14T13:47:21;5.15;;;0.60;;
31818;SDS011;18384;48.860;9.188;2023-03-14T13:49:50;2.42;;;0.55;;
31818;SDS011;18384;48.860;9.188;2023-03-14T13:52:30;3.05;;;0.80;;
31818;SDS011;18384;48.860;9.188;2023-03-14T13:55:01;2.00;;;0.62;;
31818;SDS011;18384;48.860;9.188;2023-03-14T13:57:46;4.12;;;0.68;;
31818;SDS011;18384;48.860;9.188;2023-03-14T14:00:25;1.45;;;0.60;;
31818;SDS011;18384;48.860;9.188;2023-03-14T14:02:58;4.82;;;1.05;;
31818;SDS011;18384;48.860;9.188;2023-03-14T14:05:26;2.33;;;0.70;;
31818;SDS011;18384;48.860;9.188;2023-03-14T14:07:54;1.73;;;0.70;;
31818;SDS011;18384;48.860;9.188;2023-03-14T14:10:21;3.28;;;0.60;;
31818;SDS011;18384;48.860;9.188;2023-03-14T14:12:52;2.20;;;0.77;;
31818;SDS011;18384;48.860;9.188;2023-03-14T14:15:26;6.55;;;0.80;;
31818;SDS011;18384;48.860;9.188;2023-03-14T14:18:06;1.52;;;0.60;;
31818;SDS011;18384;48.860;9.188;2023-03-14T14:20:38;3.10;;;0.62;;
31818;SDS011;18384;48.860;9.188;2023-03-14T14:23:11;2.25;;;0.60;;
31818;SDS011;18384;48.860;9.188;2023-03-14T14:25:51;3.65;;;0.77;;
31818;SDS011;18384;48.860;9.188;2023-03-14T14:28:28;5.32;;;1.00;;
31818;SDS011;18384;48.860;9.188;2023-03-14T14:33:54;1.70;;;0.80;;
31818;SDS011;18384;48.860;9.188;2023-03-14T14:36:32;4.25;;;1.08;;
31818;SDS011;18384;48.860;9.188;2023-03-14T14:39:20;4.30;;;0.90;;
31818;SDS011;18384;48.860;9.188;2023-03-14T14:41:52;3.40;;;0.73;;
31818;SDS011;18384;48.860;9.188;2023-03-14T14:44:21;4.07;;;0.80;;
31818;SDS011;18384;48.860;9.188;2023-03-14T14:46:55;3.20;;;0.95;;
31818;SDS011;18384;48.860;9.188;2023-03-14T14:49:28;4.32;;;0.90;;
31818;SDS011;18384;48.860;9.188;2023-03-14T14:52:00;11.20;;;0.93;;
31818;SDS011;18384;48.860;9.188;2023-03-14T14:55:11;7.00;;;1.42;;
31818;SDS011;18384;48.860;9.188;2023-03-14T14:57:48;4.03;;;0.90;;
31818;SDS011;18384;48.860;9.188;2023-03-14T15:00:23;3.15;;;0.95;;
31818;SDS011;18384;48.860;9.188;2023-03-14T15:02:52;3.92;;;1.20;;
31818;SDS011;18384;48.860;9.188;2023-03-14T15:05:25;5.72;;;1.20;;
31818;SDS011;18384;48.860;9.188;2023-03-14T15:07:55;5.03;;;1.00;;
31818;SDS011;18384;48.860;9.188;2023-03-14T15:10:23;2.70;;;0.90;;
31818;SDS011;18384;48.860;9.188;2023-03-14T15:12:50;5.35;;;0.88;;
31818;SDS011;18384;48.860;9.188;2023-03-14T15:15:17;3.83;;;0.90;;
31818;SDS011;18384;48.860;9.188;2023-03-14T15:17:43;3.72;;;1.25;;
31818;SDS011;18384;48.860;9.188;2023-03-14T15:20:10;4.18;;;1.00;;
31818;SDS011;18384;48.860;9.188;2023-03-14T15:22:39;6.47;;;0.98;;
31818;SDS011;18384;48.860;9.188;2023-03-14T15:25:06;6.45;;;1.00;;
31818;SDS011;18384;48.860;9.188;2023-03-14T15:27:33;2.83;;;0.88;;
31818;SDS011;18384;48.860;9.188;2023-03-14T15:30:00;3.70;;;1.30;;
31818;SDS011;18384;48.860;9.188;2023-03-14T15:34:54;10.27;;;1.10;;
31818;SDS011;18384;48.860;9.188;2023-03-14T15:37:20;7.90;;;1.10;;
31818;SDS011;18384;48.860;9.188;2023-03-14T15:39:47;7.18;;;1.20;;
31818;SDS011;18384;48.860;9.188;2023-03-14T15:42:13;5.53;;;0.95;;
31818;SDS011;18384;48.860;9.188;2023-03-14T15:44:39;3.03;;;1.10;;
31818;SDS011;18384;48.860;9.188;2023-03-14T15:47:05;4.53;;;0.90;;
31818;SDS011;18384;48.860;9.188;2023-03-14T15:49:33;4.40;;;1.10;;
31818;SDS011;18384;48.860;9.188;2023-03-14T15:54:25;3.97;;;0.80;;
31818;SDS011;18384;48.860;9.188;2023-03-14T15:56:55;5.15;;;1.02;;
31818;SDS011;18384;48.860;9.188;2023-03-14T15:59:22;8.27;;;1.33;;
31818;SDS011;18384;48.860;9.188;2023-03-14T16:01:49;4.78;;;1.23;;
31818;SDS011;18384;48.860;9.188;2023-03-14T16:04:15;2.40;;;0.93;;
31818;SDS011;18384;48.860;9.188;2023-03-14T16:06:42;6.45;;;1.42;;
31818;SDS011;18384;48.860;9.188;2023-03-14T16:09:10;3.25;;;0.93;;
31818;SDS011;18384;48.860;9.188;2023-03-14T16:11:37;3.00;;;0.90;;
31818;SDS011;18384;48.860;9.188;2023-03-14T16:14:04;4.32;;;0.98;;
31818;SDS011;18384;48.860;9.188;2023-03-14T16:16:31;5.90;;;1.33;;
31818;SDS011;18384;48.860;9.188;2023-03-14T16:18:58;7.93;;;1.40;;
31818;SDS011;18384;48.860;9.188;2023-03-14T16:21:24;1.60;;;0.80;;
31818;SDS011;18384;48.860;9.188;2023-03-14T16:23:50;6.40;;;1.20;;
31818;SDS011;18384;48.860;9.188;2023-03-14T16:26:17;5.50;;;1.40;;
31818;SDS011;18384;48.860;9.188;2023-03-14T16:28:45;8.65;;;1.12;;
31818;SDS011;18384;48.860;9.188;2023-03-14T16:31:13;3.00;;;1.10;;
31818;SDS011;18384;48.860;9.188;2023-03-14T16:33:42;4.45;;;0.95;;
31818;SDS011;18384;48.860;9.188;2023-03-14T16:36:09;19.60;;;1.48;;
31818;SDS011;18384;48.860;9.188;2023-03-14T16:38:38;5.03;;;1.20;;
31818;SDS011;18384;48.860;9.188;2023-03-14T16:41:08;9.63;;;1.27;;